Time;durP1;ratioP1;P1;durP2;ratioP2;P2;SDS_P1;SDS_P2;PMS_P1;PMS_P2;Temp;Humidity;BMP_temperature;BMP_pressure;BME280_temperature;BME280_humidity;BME280_pressure;Samples;Min_cycle;Max_cycle;Signal;HPM_P1;HPM_P2
2021/06/27 00:01:23;;;;;;;17.50;4.15;;;;;;;19.32;80.99;93891.72;6112500;23;20006;-78
2021/06/27 00:03:49;;;;;;;20.15;5.88;;;;;;;19.18;81.84;93894.00;6113933;23;20426;-78
2021/06/27 00:06:14;;;;;;;13.93;4.63;;;;;;;18.92;83.01;93882.88;6111908;23;20055;-78
2021/06/27 00:08:41;;;;;;;18.10;5.45;;;;;;;18.93;82.93;93884.44;6112382;23;20105;-78
2021/06/27 00:11:08;;;;;;;16.38;5.55;;;;;;;19.12;82.48;93898.00;6085910;23;20017;-78
2021/06/27 00:13:36;;;;;;;11.63;5.40;;;;;;;19.01;82.30;93896.91;6111743;23;20014;-78
2021/06/27 00:16:02;;;;;;;9.73;4.38;;;;;;;19.04;82.26;93890.91;6114911;23;20029;-78
2021/06/27 00:18:28;;;;;;;12.73;4.85;;;;;;;19.18;81.99;93903.91;6113149;23;20116;-78
2021/06/27 00:21:01;;;;;;;10.63;4.88;;;;;;;19.20;82.23;93905.16;6112406;23;20101;-78
2021/06/27 00:23:29;;;;;;;14.88;4.78;;;;;;;19.13;82.00;93888.88;6117095;23;20077;-77
2021/06/27 00:25:56;;;;;;;12.32;4.57;;;;;;;19.19;81.74;93894.78;6119248;23;20100;-78
2021/06/27 00:28:21;;;;;;;12.02;5.10;;;;;;;19.18;81.24;93871.78;6120250;23;20559;-78
2021/06/27 00:30:49;;;;;;;13.02;4.38;;;;;;;19.25;80.52;93872.78;6114541;23;20081;-78
2021/06/27 00:33:15;;;;;;;8.23;3.88;;;;;;;19.31;80.41;93867.91;6112550;23;20021;-78
2021/06/27 00:35:40;;;;;;;39.05;4.57;;;;;;;19.25;80.84;93880.81;6111399;23;20021;-78
2021/06/27 00:38:06;;;;;;;16.13;5.72;;;;;;;19.11;81.46;93861.63;6118173;23;20021;-77
2021/06/27 00:40:33;;;;;;;9.80;4.43;;;;;;;19.18;81.28;93877.91;6119977;23;20037;-78
2021/06/27 00:42:59;;;;;;;14.95;4.40;;;;;;;19.19;80.89;93871.44;6089095;23;20109;-78
2021/06/27 00:45:29;;;;;;;20.02;4.72;;;;;;;19.17;81.00;93878.25;6111772;23;20021;-78
2021/06/27 00:47:58;;;;;;;13.63;4.43;;;;;;;19.16;80.54;93865.97;6112784;23;20014;-78
2021/06/27 00:50:33;;;;;;;18.60;4.90;;;;;;;19.19;80.21;93865.31;6085484;23;20018;-78
2021/06/27 00:53:00;;;;;;;17.88;5.57;;;;;;;19.21;80.17;93869.19;6118941;23;20022;-78
2021/06/27 00:55:25;;;;;;;13.95;4.80;;;;;;;19.23;80.16;93866.97;6084265;23;20678;-78
2021/06/27 00:57:52;;;;;;;19.00;5.63;;;;;;;19.06;80.25;93853.81;6088957;23;20310;-78
2021/06/27 01:00:29;;;;;;;11.85;4.78;;;;;;;18.95;80.92;93861.59;6110270;23;20060;-78
2021/06/27 01:02:55;;;;;;;11.57;5.22;;;;;;;18.96;81.50;93862.38;6085476;23;20084;-78
2021/06/27 01:05:24;;;;;;;10.88;4.68;;;;;;;19.04;81.72;93864.13;6086101;23;20018;-77
2021/06/27 01:07:49;;;;;;;15.10;5.57;;;;;;;18.92;81.83;93866.81;6119393;23;20056;-77
2021/06/27 01:10:15;;;;;;;12.43;5.60;;;;;;;18.86;82.35;93863.59;6118893;23;20041;-77
2021/06/27 01:12:41;;;;;;;9.07;4.70;;;;;;;18.86;81.77;93862.84;6114990;23;20081;-77
2021/06/27 01:15:11;;;;;;;15.85;5.30;;;;;;;18.73;81.90;93855.94;6111167;23;20525;-77
2021/06/27 01:17:40;;;;;;;12.40;4.70;;;;;;;18.65;81.85;93846.91;6115760;23;20034;-77
2021/06/27 01:20:11;;;;;;;14.77;5.63;;;;;;;18.77;81.41;93856.81;6084620;23;20021;-77
2021/06/27 01:22:37;;;;;;;11.20;4.88;;;;;;;18.50;82.46;93845.69;6120069;23;20016;-77
2021/06/27 01:25:05;;;;;;;17.10;5.60;;;;;;;18.37;82.90;93846.81;6088282;23;20393;-77
2021/06/27 01:27:30;;;;;;;14.75;6.20;;;;;;;18.44;82.91;93840.88;6084357;23;20116;-77
2021/06/27 01:29:56;;;;;;;17.15;6.40;;;;;;;18.38;83.12;93836.88;6111907;23;20018;-77
2021/06/27 01:32:22;;;;;;;16.38;5.82;;;;;;;18.41;83.03;93830.88;6112607;23;20021;-77
2021/06/27 01:34:50;;;;;;;16.92;5.22;;;;;;;18.18;83.49;93822.50;6083717;23;20465;-77
2021/06/27 01:37:15;;;;;;;17.55;5.57;;;;;;;18.26;83.06;93818.94;6110279;23;20381;-77
2021/06/27 01:39:41;;;;;;;10.18;5.13;;;;;;;18.20;83.24;93822.97;6122758;23;20064;-77
2021/06/27 01:42:06;;;;;;;15.57;4.63;;;;;;;18.35;82.77;93822.28;6112518;23;20319;-77
2021/06/27 01:44:32;;;;;;;14.80;5.45;;;;;;;18.06;83.54;93811.81;6114371;23;20353;-77
2021/06/27 01:46:58;;;;;;;10.68;5.30;;;;;;;18.13;83.59;93831.53;6117735;23;20013;-77
2021/06/27 01:49:24;;;;;;;12.00;4.97;;;;;;;18.12;83.59;93839.91;6120912;23;20005;-77
2021/06/27 01:51:51;;;;;;;15.60;5.32;;;;;;;18.14;83.76;93851.81;6122628;23;20001;-78
2021/06/27 01:54:17;;;;;;;12.35;4.78;;;;;;;18.19;83.56;93853.47;6112711;23;20028;-78
2021/06/27 01:56:42;;;;;;;12.98;4.95;;;;;;;18.15;83.41;93849.91;6111471;23;20013;-77
2021/06/27 01:59:09;;;;;;;20.58;5.57;;;;;;;18.31;83.11;93853.50;6111248;23;20097;-77
2021/06/27 02:01:37;;;;;;;13.80;5.78;;;;;;;18.27;83.02;93857.19;6109683;23;20088;-77
2021/06/27 02:04:06;;;;;;;19.33;5.90;;;;;;;18.24;83.39;93847.13;6112797;23;20014;-77
2021/06/27 02:06:42;;;;;;;18.90;5.28;;;;;;;18.33;82.79;93845.13;6110264;23;20026;-77
2021/06/27 02:09:11;;;;;;;16.73;4.93;;;;;;;18.30;82.75;93835.09;6113031;23;20061;-77
2021/06/27 02:11:39;;;;;;;13.52;5.45;;;;;;;17.97;84.02;93835.22;6109299;23;20018;-77
2021/06/27 02:14:05;;;;;;;19.58;7.60;;;;;;;17.91;83.99;93818.59;6085516;23;20101;-77
2021/06/27 02:16:32;;;;;;;13.68;5.30;;;;;;;17.87;84.76;93838.31;6110445;23;20024;-77
2021/06/27 02:18:58;;;;;;;13.85;6.60;;;;;;;17.90;84.35;93830.41;6123318;23;20053;-77
2021/06/27 02:21:32;;;;;;;16.83;5.20;;;;;;;17.82;84.61;93820.59;6110517;23;20018;-77
2021/06/27 02:23:59;;;;;;;14.90;5.73;;;;;;;17.96;84.26;93821.06;6085996;23;20022;-77
2021/06/27 02:26:26;;;;;;;12.48;5.35;;;;;;;17.99;84.19;93819.59;6110787;23;20028;-77
2021/06/27 02:28:53;;;;;;;16.25;5.70;;;;;;;17.93;83.93;93820.97;6112419;23;20403;-77
2021/06/27 02:31:19;;;;;;;9.18;5.20;;;;;;;17.98;84.13;93818.06;6110624;23;20013;-77
2021/06/27 02:33:46;;;;;;;11.57;4.78;;;;;;;18.14;83.45;93816.25;6112400;23;20005;-78
2021/06/27 02:36:12;;;;;;;19.73;5.75;;;;;;;18.08;83.65;93825.66;6083118;23;20110;-77
2021/06/27 02:38:38;;;;;;;12.15;5.20;;;;;;;18.21;83.02;93826.41;6111737;23;20026;-77
2021/06/27 02:41:08;;;;;;;15.55;5.50;;;;;;;18.22;82.90;93826.09;6110688;23;20010;-77
2021/06/27 02:43:33;;;;;;;11.20;5.05;;;;;;;18.14;83.27;93827.75;6110395;23;20025;-77
2021/06/27 02:45:59;;;;;;;15.18;6.07;;;;;;;18.17;83.49;93842.34;6124443;23;20388;-77
2021/06/27 02:48:25;;;;;;;17.13;5.93;;;;;;;18.02;83.78;93829.66;6112795;23;20501;-77
2021/06/27 02:50:51;;;;;;;16.50;5.60;;;;;;;18.11;83.87;93839.13;6111037;23;20116;-77
2021/06/27 02:53:16;;;;;;;9.27;5.50;;;;;;;17.91;84.30;93844.56;6111321;23;20453;-77
2021/06/27 02:55:42;;;;;;;25.88;7.70;;;;;;;17.84;84.82;93845.09;6111344;23;20036;-77
2021/06/27 02:58:07;;;;;;;14.82;6.55;;;;;;;17.92;84.82;93846.13;6088531;23;20008;-77
2021/06/27 03:00:33;;;;;;;22.10;7.90;;;;;;;17.89;84.58;93852.13;6086051;23;20053;-77
2021/06/27 03:02:59;;;;;;;22.35;7.90;;;;;;;17.87;84.20;93846.34;6111619;23;20021;-77
2021/06/27 03:05:28;;;;;;;18.20;7.03;;;;;;;17.93;84.83;93869.88;6118504;23;20081;-77
2021/06/27 03:07:54;;;;;;;11.90;6.32;;;;;;;17.99;85.05;93865.06;6086971;23;20046;-77
2021/06/27 03:10:20;;;;;;;14.57;7.28;;;;;;;18.13;84.93;93862.88;6112960;23;20939;-77
2021/06/27 03:12:48;;;;;;;10.70;5.97;;;;;;;18.27;83.92;93870.56;6114189;23;20009;-77
2021/06/27 03:15:17;;;;;;;14.15;6.15;;;;;;;18.32;84.16;93864.97;6113535;23;20073;-78
2021/06/27 03:17:43;;;;;;;17.70;5.32;;;;;;;18.43;83.67;93872.22;6110466;23;20069;-77
2021/06/27 03:20:11;;;;;;;19.55;6.13;;;;;;;18.64;83.12;93872.13;6119100;23;20017;-78
2021/06/27 03:22:37;;;;;;;16.17;5.55;;;;;;;19.05;82.19;93865.69;6110986;23;20006;-77
2021/06/27 03:25:04;;;;;;;16.95;5.20;;;;;;;19.25;81.62;93863.94;6116242;23;20008;-78
2021/06/27 03:27:30;;;;;;;17.75;4.45;;;;;;;19.59;80.12;93862.59;6110704;23;20022;-78
2021/06/27 03:29:56;;;;;;;13.73;4.30;;;;;;;20.05;79.15;93859.19;6085814;23;20044;-78
2021/06/27 03:32:21;;;;;;;16.80;5.10;;;;;;;20.48;76.64;93852.16;6085728;23;20037;-77
2021/06/27 03:34:47;;;;;;;15.15;4.38;;;;;;;20.84;74.81;93840.31;6112050;23;20480;-77
2021/06/27 03:37:12;;;;;;;12.88;4.90;;;;;;;21.33;72.52;93845.97;6122796;23;20091;-77
2021/06/27 03:39:38;;;;;;;15.25;5.30;;;;;;;21.82;70.65;93841.53;6089777;23;20429;-77
2021/06/27 03:42:04;;;;;;;20.88;4.07;;;;;;;22.08;67.52;93846.22;6113940;23;20028;-77
2021/06/27 03:44:30;;;;;;;13.32;4.45;;;;;;;22.61;64.91;93857.06;6112596;23;20089;-78
2021/06/27 03:46:56;;;;;;;11.18;3.38;;;;;;;22.79;64.50;93858.13;6085872;23;20504;-77
2021/06/27 03:49:22;;;;;;;9.05;4.18;;;;;;;22.82;63.59;93866.25;6121491;23;20736;-77
2021/06/27 03:51:48;;;;;;;13.88;4.82;;;;;;;23.15;63.99;93862.09;6125429;23;20467;-77
2021/06/27 03:54:15;;;;;;;13.77;4.95;;;;;;;23.20;63.92;93865.25;6112726;23;20018;-78
2021/06/27 03:56:40;;;;;;;12.52;4.53;;;;;;;23.40;63.54;93867.78;6114910;23;20013;-77
2021/06/27 03:59:06;;;;;;;16.90;4.60;;;;;;;23.73;62.87;93860.50;6086371;23;20080;-78
2021/06/27 04:01:32;;;;;;;16.05;5.22;;;;;;;24.07;61.48;93857.75;6120628;23;20010;-77
2021/06/27 04:03:58;;;;;;;20.20;5.85;;;;;;;24.08;61.06;93857.38;6124963;23;20058;-78
2021/06/27 04:06:23;;;;;;;14.20;6.20;;;;;;;24.22;61.00;93859.47;6086176;23;20026;-78
2021/06/27 04:08:49;;;;;;;10.98;5.35;;;;;;;24.37;59.84;93847.63;6112764;23;20513;-78
2021/06/27 04:11:14;;;;;;;13.65;5.70;;;;;;;24.71;58.92;93859.06;6118254;23;20021;-77
2021/06/27 04:13:40;;;;;;;14.73;6.40;;;;;;;24.98;57.54;93848.84;6118800;23;20013;-77
2021/06/27 04:16:06;;;;;;;15.73;6.20;;;;;;;24.99;57.20;93853.09;6124959;23;20010;-77
2021/06/27 04:18:35;;;;;;;14.23;6.38;;;;;;;25.36;56.78;93864.47;6111901;23;20025;-77
2021/06/27 04:21:01;;;;;;;20.27;5.55;;;;;;;25.56;56.29;93864.22;6113139;23;20041;-77
2021/06/27 04:23:29;;;;;;;13.05;6.05;;;;;;;25.39;55.91;93871.84;6116205;23;20364;-76
2021/06/27 04:25:55;;;;;;;12.50;5.72;;;;;;;25.44;55.60;93868.00;6086983;23;20014;-77
2021/06/27 04:28:20;;;;;;;12.70;5.63;;;;;;;25.78;55.03;93882.84;6112109;23;20454;-78
2021/06/27 04:30:46;;;;;;;23.25;6.15;;;;;;;25.66;55.31;93880.47;6125118;23;20006;-77
2021/06/27 04:33:11;;;;;;;12.23;6.10;;;;;;;25.76;54.05;93884.38;6110937;23;20054;-78
2021/06/27 04:35:38;;;;;;;10.45;6.07;;;;;;;25.80;54.50;93868.94;6086666;23;20021;-78
2021/06/27 04:38:05;;;;;;;13.88;5.95;;;;;;;26.02;54.14;93869.75;6112038;23;20018;-78
2021/06/27 04:40:32;;;;;;;17.77;5.63;;;;;;;26.03;54.30;93871.31;6112162;23;20449;-78
2021/06/27 04:42:58;;;;;;;9.50;6.05;;;;;;;25.83;54.74;93873.59;6089248;23;20009;-77
2021/06/27 04:45:23;;;;;;;15.27;6.00;;;;;;;25.70;56.00;93883.22;6112730;23;20014;-78
2021/06/27 04:47:49;;;;;;;14.13;5.50;;;;;;;26.05;55.36;93886.00;6111597;23;20457;-77
2021/06/27 04:50:14;;;;;;;14.95;5.22;;;;;;;26.24;54.74;93896.53;6116880;23;20081;-77
2021/06/27 04:52:40;;;;;;;17.70;6.88;;;;;;;26.70;52.91;93885.72;6118072;23;20551;-78
2021/06/27 04:55:07;;;;;;;14.60;6.82;;;;;;;27.37;51.44;93879.44;6124260;23;20398;-77
2021/06/27 04:57:33;;;;;;;13.10;5.32;;;;;;;28.05;49.96;93890.06;6085746;23;20042;-77
2021/06/27 04:59:59;;;;;;;16.60;5.10;;;;;;;28.43;48.58;93884.41;6110644;23;20101;-78
2021/06/27 05:02:24;;;;;;;15.63;5.43;;;;;;;28.52;48.11;93888.59;6112003;23;20068;-77
2021/06/27 05:04:50;;;;;;;10.15;5.32;;;;;;;28.57;47.72;93891.69;6084772;23;20331;-78
2021/06/27 05:07:16;;;;;;;12.45;5.90;;;;;;;28.27;47.73;93892.28;6110923;23;20135;-77
2021/06/27 05:09:41;;;;;;;15.05;6.25;;;;;;;28.07;48.77;93896.63;6124033;23;20018;-77
2021/06/27 05:12:07;;;;;;;13.65;5.45;;;;;;;27.86;49.44;93891.28;6111703;23;20029;-77
2021/06/27 05:14:33;;;;;;;14.30;6.82;;;;;;;27.71;50.12;93893.28;6115844;23;20117;-78
2021/06/27 05:16:58;;;;;;;17.30;6.80;;;;;;;27.89;50.44;93885.88;6118911;23;20386;-77
2021/06/27 05:19:24;;;;;;;13.63;6.22;;;;;;;27.98;49.01;93894.34;6084774;23;20010;-77
2021/06/27 05:21:50;;;;;;;20.00;7.05;;;;;;;27.98;49.26;93894.34;6114066;23;20391;-77
2021/06/27 05:24:15;;;;;;;20.40;5.85;;;;;;;28.48;48.68;93891.34;6112119;23;20100;-77
2021/06/27 05:26:40;;;;;;;11.50;4.40;;;;;;;29.03;47.67;93885.88;6110549;23;20475;-77
2021/06/27 05:29:06;;;;;;;11.60;5.53;;;;;;;29.93;46.10;93881.81;6117583;23;20465;-77
2021/06/27 05:31:36;;;;;;;13.27;5.50;;;;;;;30.94;43.56;93877.22;6084797;23;20077;-78
2021/06/27 05:34:02;;;;;;;20.23;4.60;;;;;;;31.72;42.17;93881.28;6122729;23;20009;-77
2021/06/27 05:36:27;;;;;;;13.25;4.43;;;;;;;32.62;40.42;93878.97;6111476;23;20022;-77
2021/06/27 05:38:53;;;;;;;14.25;4.07;;;;;;;32.84;38.79;93877.28;6111460;23;20718;-77
2021/06/27 05:41:18;;;;;;;12.15;4.25;;;;;;;33.29;38.18;93880.09;6111559;23;20029;-77
2021/06/27 05:43:44;;;;;;;16.52;3.42;;;;;;;33.78;36.14;93882.72;6083160;23;20018;-77
2021/06/27 05:46:09;;;;;;;12.95;3.65;;;;;;;34.02;36.66;93894.94;6114894;23;20431;-78
2021/06/27 05:48:34;;;;;;;13.88;3.95;;;;;;;34.34;35.97;93902.28;6109702;23;20018;-77
2021/06/27 05:51:00;;;;;;;10.13;3.17;;;;;;;33.88;35.85;93892.59;6111469;23;20025;-77
2021/06/27 05:53:25;;;;;;;15.98;3.95;;;;;;;33.76;35.81;93896.88;6115168;23;20026;-77
2021/06/27 05:56:08;;;;;;;10.73;3.88;;;;;;;33.50;37.13;93903.41;6117259;23;20020;-78
2021/06/27 05:58:37;;;;;;;11.43;3.63;;;;;;;33.43;36.84;93901.63;6112511;23;20013;-77
2021/06/27 06:01:03;;;;;;;9.82;4.18;;;;;;;33.25;37.07;93900.56;6123361;23;20009;-77
2021/06/27 06:03:29;;;;;;;16.98;4.05;;;;;;;32.83;37.31;93903.13;6111530;23;20018;-78
2021/06/27 06:05:54;;;;;;;11.40;3.25;;;;;;;32.90;37.86;93902.94;6113310;23;20028;-77
2021/06/27 06:08:19;;;;;;;13.57;2.88;;;;;;;32.94;35.63;93903.63;6117091;23;20014;-77
2021/06/27 06:10:45;;;;;;;7.85;2.50;;;;;;;33.54;35.48;93909.56;6117179;23;20014;-77
2021/06/27 06:13:10;;;;;;;9.35;2.80;;;;;;;33.73;35.98;93913.38;6086557;23;20012;-77
2021/06/27 06:15:35;;;;;;;12.75;3.15;;;;;;;33.67;36.73;93909.63;6115477;23;20376;-77
2021/06/27 06:18:01;;;;;;;9.77;2.30;;;;;;;33.12;37.06;93910.66;6115259;23;20024;-77
2021/06/27 06:20:26;;;;;;;7.57;2.10;;;;;;;32.66;38.34;93912.53;6112972;23;20327;-77
2021/06/27 06:22:52;;;;;;;18.55;2.67;;;;;;;32.83;37.81;93894.16;6113252;23;20197;-77
2021/06/27 06:25:17;;;;;;;11.85;2.58;;;;;;;32.73;38.73;93904.16;6122838;23;20240;-77
2021/06/27 06:27:42;;;;;;;6.03;2.28;;;;;;;32.69;38.52;93903.47;6115019;23;20085;-77
2021/06/27 06:30:08;;;;;;;9.82;2.70;;;;;;;32.43;39.08;93918.09;6115144;23;20025;-77
2021/06/27 06:32:34;;;;;;;7.22;2.55;;;;;;;32.13;39.62;93910.94;6112537;23;20025;-77
2021/06/27 06:34:59;;;;;;;12.10;3.40;;;;;;;32.07;40.39;93907.91;6112482;23;20025;-77
2021/06/27 06:37:24;;;;;;;12.60;2.65;;;;;;;31.93;40.28;93907.41;6113075;23;20006;-77
2021/06/27 06:39:50;;;;;;;9.18;3.00;;;;;;;31.62;40.51;93901.41;6088891;23;20104;-76
2021/06/27 06:42:15;;;;;;;9.25;2.97;;;;;;;31.79;41.22;93903.78;6113524;23;20028;-77
2021/06/27 06:44:41;;;;;;;8.80;2.70;;;;;;;31.74;41.38;93911.69;6110696;23;20018;-77
2021/06/27 06:47:06;;;;;;;7.35;3.10;;;;;;;32.06;40.32;93903.63;6112781;23;20076;-77
2021/06/27 06:49:32;;;;;;;13.73;3.35;;;;;;;32.40;39.34;93899.81;6087271;23;20017;-78
2021/06/27 06:51:57;;;;;;;14.02;3.47;;;;;;;33.18;38.20;93903.50;6114717;23;20025;-77
2021/06/27 06:54:22;;;;;;;9.10;2.72;;;;;;;33.72;36.38;93903.66;6113389;23;20512;-77
2021/06/27 06:56:48;;;;;;;8.88;2.80;;;;;;;34.24;36.20;93908.84;6112108;23;20073;-77
2021/06/27 06:59:13;;;;;;;8.23;2.72;;;;;;;34.59;36.56;93896.81;6108369;23;20442;-78
2021/06/27 07:01:38;;;;;;;6.68;2.03;;;;;;;35.38;34.04;93906.84;6080691;23;20013;-77
2021/06/27 07:04:04;;;;;;;8.30;3.03;;;;;;;36.14;34.09;93895.53;6113432;23;20006;-77
2021/06/27 07:06:29;;;;;;;8.10;2.35;;;;;;;36.70;32.64;93909.13;6081614;23;20010;-77
2021/06/27 07:08:55;;;;;;;5.93;2.53;;;;;;;36.43;32.01;93912.50;6110309;23;20029;-78
2021/06/27 07:11:20;;;;;;;9.02;3.00;;;;;;;36.22;32.22;93913.31;6114563;23;20116;-77
2021/06/27 07:13:46;;;;;;;9.82;3.05;;;;;;;36.09;33.57;93917.31;6081576;23;20025;-78
2021/06/27 07:16:11;;;;;;;13.57;3.55;;;;;;;35.72;33.16;93914.34;6116780;23;20010;-77
2021/06/27 07:18:36;;;;;;;7.78;2.53;;;;;;;35.16;34.48;93911.47;6117253;23;20501;-77
2021/06/27 07:21:02;;;;;;;12.30;3.30;;;;;;;35.24;34.87;93912.78;6105838;23;20018;-77
2021/06/27 07:23:28;;;;;;;6.05;3.10;;;;;;;35.62;34.87;93913.47;6106478;23;20025;-76
2021/06/27 07:25:53;;;;;;;10.73;3.45;;;;;;;35.87;33.75;93909.09;6111825;23;20416;-75
2021/06/27 07:28:19;;;;;;;8.63;3.05;;;;;;;36.15;33.86;93910.06;6106573;23;20341;-76
2021/06/27 07:30:44;;;;;;;7.80;3.00;;;;;;;35.69;33.11;93879.47;6112464;23;20085;-77
2021/06/27 07:33:11;;;;;;;8.02;2.65;;;;;;;36.24;32.89;93915.63;6082873;23;20013;-76
2021/06/27 07:35:37;;;;;;;9.00;3.17;;;;;;;36.16;32.26;93906.09;6108479;23;20329;-77
2021/06/27 07:38:02;;;;;;;7.90;2.60;;;;;;;36.96;30.98;93917.94;6080350;23;20570;-80
2021/06/27 07:40:28;;;;;;;8.75;3.22;;;;;;;38.24;30.00;93905.06;6109844;23;20006;-80
2021/06/27 07:42:54;;;;;;;11.30;2.83;;;;;;;39.14;28.12;93910.75;6114431;23;20013;-84
2021/06/27 07:45:23;;;;;;;6.13;2.45;;;;;;;39.58;27.96;93914.50;6109876;23;20041;-83
2021/06/27 07:47:48;;;;;;;8.73;3.03;;;;;;;40.37;25.96;93900.88;6084337;23;20470;-84
2021/06/27 07:50:17;;;;;;;10.63;2.70;;;;;;;40.86;25.10;93897.41;6077133;23;20532;-87
2021/06/27 07:52:42;;;;;;;6.07;2.40;;;;;;;41.38;25.53;93915.09;6117285;23;20030;-80
2021/06/27 07:55:08;;;;;;;8.45;2.75;;;;;;;41.95;23.83;93920.09;6113549;23;20029;-82
2021/06/27 07:57:34;;;;;;;10.25;2.22;;;;;;;42.14;23.62;93907.44;6083427;23;20336;-82
2021/06/27 07:59:59;;;;;;;6.10;1.90;;;;;;;42.37;21.93;93916.78;6085054;23;20025;-82
2021/06/27 08:02:25;;;;;;;6.55;2.42;;;;;;;42.07;22.51;93916.22;6116931;23;20500;-87
2021/06/27 08:04:51;;;;;;;6.75;1.90;;;;;;;42.03;22.68;93914.91;6087249;23;20101;-80
2021/06/27 08:07:17;;;;;;;10.90;2.20;;;;;;;42.99;22.75;93924.38;6093454;23;20002;-86
2021/06/27 08:09:42;;;;;;;8.68;3.03;;;;;;;43.93;21.16;93926.97;6113332;23;20361;-86
2021/06/27 08:12:08;;;;;;;6.95;2.65;;;;;;;43.87;19.80;93926.19;6085349;23;20342;-82
2021/06/27 08:14:33;;;;;;;6.50;2.38;;;;;;;43.13;20.41;93923.50;6112413;23;20014;-82
2021/06/27 08:16:59;;;;;;;9.52;3.28;;;;;;;43.50;20.94;93933.81;6119135;23;20104;-81
2021/06/27 08:19:24;;;;;;;12.13;2.85;;;;;;;44.35;20.47;93922.53;6111948;23;20013;-79
2021/06/27 08:21:50;;;;;;;8.70;2.25;;;;;;;44.34;20.61;93927.34;6123200;23;20437;-77
2021/06/27 08:24:15;;;;;;;6.82;2.10;;;;;;;44.22;20.65;93928.56;6112324;23;20048;-79
2021/06/27 08:26:41;;;;;;;8.40;2.33;;;;;;;44.20;20.85;93927.53;6110661;23;20018;-85
2021/06/27 08:29:06;;;;;;;11.00;2.47;;;;;;;44.71;20.79;93921.59;6118591;23;20040;-81
2021/06/27 08:31:32;;;;;;;5.45;1.92;;;;;;;45.07;19.18;93927.41;6119877;23;20024;-81
2021/06/27 08:33:58;;;;;;;6.65;2.40;;;;;;;44.62;19.10;93912.69;6124152;23;20005;-82
2021/06/27 08:36:27;;;;;;;9.60;2.10;;;;;;;45.01;18.59;93921.81;6109454;23;20081;-84
2021/06/27 08:38:53;;;;;;;6.28;2.20;;;;;;;44.46;18.98;93894.69;6068212;23;20025;-84
2021/06/27 08:41:19;;;;;;;7.70;2.35;;;;;;;43.40;20.19;93888.00;6070192;23;20025;-82
2021/06/27 08:43:45;;;;;;;7.15;2.22;;;;;;;42.83;20.50;93900.00;6108506;23;20022;-82
2021/06/27 08:46:13;;;;;;;4.65;2.10;;;;;;;41.63;21.67;93912.91;6108545;23;19997;-82
2021/06/27 08:48:39;;;;;;;9.63;2.70;;;;;;;40.66;22.71;93906.44;6111897;23;20005;-85
2021/06/27 08:51:07;;;;;;;7.38;2.47;;;;;;;40.13;23.46;93911.25;6084084;23;20096;-84
2021/06/27 08:53:34;;;;;;;5.20;2.63;;;;;;;40.49;23.21;93897.09;6083625;23;20104;-78
2021/06/27 08:56:06;;;;;;;9.73;2.50;;;;;;;40.55;23.07;93906.25;6084375;23;20390;-79
2021/06/27 08:58:42;;;;;;;6.80;2.80;;;;;;;40.75;23.20;93902.81;6084574;23;20070;-80
2021/06/27 09:01:15;;;;;;;5.35;2.67;;;;;;;40.78;23.11;93895.53;6124199;23;20016;-79
2021/06/27 09:03:41;;;;;;;10.93;2.67;;;;;;;40.35;23.27;93897.84;6108697;23;20112;-77
2021/06/27 09:06:09;;;;;;;7.10;2.72;;;;;;;40.67;23.79;93899.66;6110671;23;20244;-76
2021/06/27 09:08:34;;;;;;;12.93;2.75;;;;;;;41.31;23.59;93903.63;6114627;23;20090;-78
2021/06/27 09:11:14;;;;;;;13.77;3.17;;;;;;;41.62;23.46;93905.81;6083440;23;20092;-77
2021/06/27 09:13:42;;;;;;;8.48;3.72;;;;;;;41.78;22.47;93897.69;6084956;23;20009;-81
2021/06/27 09:16:19;;;;;;;7.45;2.92;;;;;;;41.73;22.47;93889.31;6123642;23;20017;-77
2021/06/27 09:18:45;;;;;;;67.45;7.95;;;;;;;40.95;22.79;93893.78;6111558;23;20018;-78
2021/06/27 09:21:11;;;;;;;9.10;2.88;;;;;;;39.51;24.51;93897.47;6109867;23;20480;-77
2021/06/27 09:23:39;;;;;;;277.95;26.98;;;;;;;39.57;24.36;93890.84;6109384;23;20108;-77
2021/06/27 09:26:05;;;;;;;28.25;4.70;;;;;;;39.30;25.53;93891.75;6109447;23;20109;-76
2021/06/27 09:28:45;;;;;;;9.32;3.00;;;;;;;38.70;26.11;93896.66;6116338;23;20526;-76
2021/06/27 09:31:11;;;;;;;9.35;3.05;;;;;;;38.35;25.21;93874.22;6080871;23;20030;-76
2021/06/27 09:33:36;;;;;;;7.32;3.22;;;;;;;38.13;26.59;93883.47;6120581;23;20393;-77
2021/06/27 09:36:09;;;;;;;9.80;3.63;;;;;;;38.00;26.15;93880.13;6108449;23;20026;-76
2021/06/27 09:38:43;;;;;;;6.55;2.95;;;;;;;37.75;27.33;93885.94;6108206;23;20017;-76
2021/06/27 09:41:22;;;;;;;8.82;3.10;;;;;;;37.74;26.76;93884.41;6107734;23;20018;-76
2021/06/27 09:43:53;;;;;;;6.68;3.03;;;;;;;37.51;27.62;93888.53;6077626;23;20021;-79
2021/06/27 09:46:50;;;;;;;8.02;3.28;;;;;;;36.83;28.14;93881.50;6114195;23;20005;-78
2021/06/27 09:49:26;;;;;;;10.48;3.13;;;;;;;36.92;28.43;93876.00;6082572;23;20008;-78
2021/06/27 09:51:52;;;;;;;7.07;3.15;;;;;;;36.75;28.94;93867.22;6085198;23;19998;-79
2021/06/27 09:54:23;;;;;;;9.93;3.75;;;;;;;36.54;28.28;93872.81;6104572;23;20009;-79
2021/06/27 09:56:49;;;;;;;9.05;3.40;;;;;;;35.72;28.38;93873.09;6111313;23;20104;-78
2021/06/27 09:59:17;;;;;;;7.10;3.92;;;;;;;35.28;29.17;93877.75;6109161;23;20108;-79
2021/06/27 10:01:43;;;;;;;10.70;4.25;;;;;;;34.45;30.28;93880.00;6109590;23;20173;-79
2021/06/27 10:04:12;;;;;;;11.95;3.60;;;;;;;34.49;30.91;93881.44;6113913;23;20084;-79
2021/06/27 10:06:51;;;;;;;11.70;3.90;;;;;;;34.34;31.54;93875.59;6108949;23;20014;-80
2021/06/27 10:09:22;;;;;;;11.18;4.40;;;;;;;34.31;30.29;93876.47;6112377;23;20033;-78
2021/06/27 10:12:06;;;;;;;5.93;3.17;;;;;;;34.31;31.86;93865.50;6113376;23;20287;-78
2021/06/27 10:14:41;;;;;;;10.00;3.53;;;;;;;34.28;32.14;93860.91;6085653;23;20014;-78
2021/06/27 10:17:07;;;;;;;10.88;3.83;;;;;;;34.17;32.73;93865.13;6086521;23;20710;-79
2021/06/27 10:19:33;;;;;;;7.50;3.17;;;;;;;33.98;33.96;93863.34;6084572;23;20017;-78
2021/06/27 10:22:01;;;;;;;10.90;4.38;;;;;;;33.92;35.27;93865.84;6112865;23;20426;-79
2021/06/27 10:24:27;;;;;;;12.05;3.33;;;;;;;33.75;33.36;93872.63;6084035;23;20487;-79
2021/06/27 10:26:53;;;;;;;11.35;5.05;;;;;;;33.76;35.02;93869.47;6083440;23;20026;-81
2021/06/27 10:29:22;;;;;;;9.20;3.45;;;;;;;33.83;35.22;93866.50;6111667;23;20296;-81
2021/06/27 10:31:51;;;;;;;7.97;3.08;;;;;;;33.93;33.75;93857.19;6084802;23;20018;-79
2021/06/27 10:34:18;;;;;;;9.70;3.80;;;;;;;33.83;32.83;93847.31;6123050;23;20002;-78
2021/06/27 10:36:49;;;;;;;10.43;3.72;;;;;;;33.73;33.88;93859.34;6115501;23;20006;-80
2021/06/27 10:39:15;;;;;;;7.20;3.78;;;;;;;34.00;36.40;93852.72;6086216;23;20018;-79
2021/06/27 10:41:54;;;;;;;10.75;3.75;;;;;;;34.11;34.98;93851.19;6110437;23;20018;-80
2021/06/27 10:44:25;;;;;;;9.43;3.03;;;;;;;34.08;34.61;93854.03;6118843;23;20045;-79
2021/06/27 10:46:53;;;;;;;8.82;3.75;;;;;;;34.06;33.32;93850.97;6118750;23;20275;-80
2021/06/27 10:49:30;;;;;;;9.85;3.25;;;;;;;33.85;32.92;93858.63;6119336;23;20449;-79
2021/06/27 10:52:05;;;;;;;8.35;3.45;;;;;;;33.69;33.50;93858.69;6123342;23;20077;-79
2021/06/27 10:54:38;;;;;;;4.80;3.53;;;;;;;33.66;35.35;93850.53;6111804;23;20018;-79
2021/06/27 10:57:11;;;;;;;10.90;3.60;;;;;;;33.36;34.09;93849.78;6112678;23;20462;-79
2021/06/27 10:59:44;;;;;;;14.20;4.05;;;;;;;33.33;36.59;93852.63;6116929;23;20510;-79
2021/06/27 11:02:18;;;;;;;9.47;3.43;;;;;;;33.38;34.38;93852.84;6079573;23;20056;-79
2021/06/27 11:04:49;;;;;;;12.27;3.87;;;;;;;33.34;35.97;93843.19;6086786;23;20014;-80
2021/06/27 11:07:34;;;;;;;6.75;2.80;;;;;;;33.27;35.34;93849.63;6086530;23;20108;-79
2021/06/27 11:10:17;;;;;;;14.43;3.53;;;;;;;33.19;35.52;93842.00;6125535;23;20018;-79
2021/06/27 11:12:55;;;;;;;13.02;3.72;;;;;;;33.15;36.78;93846.78;6111562;23;20018;-80
2021/06/27 11:15:25;;;;;;;10.05;3.83;;;;;;;32.57;34.92;93828.28;6112301;23;20024;-81
2021/06/27 11:17:58;;;;;;;12.30;3.63;;;;;;;32.58;35.18;93831.78;6112290;23;20599;-81
2021/06/27 11:20:25;;;;;;;12.30;4.00;;;;;;;32.71;34.28;93838.13;6117042;23;20119;-81
2021/06/27 11:22:53;;;;;;;11.43;3.90;;;;;;;32.55;35.62;93835.34;6112632;23;20006;-82
2021/06/27 11:25:48;;;;;;;11.02;3.17;;;;;;;32.68;34.03;93836.25;6112496;23;20006;-80
2021/06/27 11:28:19;;;;;;;8.55;3.78;;;;;;;32.66;35.08;93835.91;6067414;23;20069;-81